sensor_id;sensor_type;location;lat;lon;timestamp;pressure;altitude;pressure_sealevel;temperature;humidity
77153;BME280;66124;51.146;17.072;2023-04-03T00:02:28;101048.15;;;1.42;67.91
77153;BME280;66124;51.146;17.072;2023-04-03T00:04:58;101050.29;;;1.38;67.67
77153;BME280;66124;51.146;17.072;2023-04-03T00:07:28;101052.25;;;1.35;67.90
77153;BME280;66124;51.146;17.072;2023-04-03T00:09:57;101057.95;;;1.32;67.88
77153;BME280;66124;51.146;17.072;2023-04-03T00:12:26;101057.24;;;1.30;67.88
77153;BME280;66124;51.146;17.072;2023-04-03T00:14:56;101060.25;;;1.29;68.08
77153;BME280;66124;51.146;17.072;2023-04-03T00:17:25;101058.13;;;1.27;68.13
77153;BME280;66124;51.146;17.072;2023-04-03T00:19:54;101060.52;;;1.25;68.10
77153;BME280;66124;51.146;17.072;2023-04-03T00:22:25;101061.12;;;1.24;68.19
77153;BME280;66124;51.146;17.072;2023-04-03T00:24:54;101061.58;;;1.22;68.32
77153;BME280;66124;51.146;17.072;2023-04-03T00:27:23;101060.24;;;1.21;68.42
77153;BME280;66124;51.146;17.072;2023-04-03T00:29:53;101059.79;;;1.20;68.40
77153;BME280;66124;51.146;17.072;2023-04-03T00:32:22;101063.52;;;1.19;68.41
77153;BME280;66124;51.146;17.072;2023-04-03T00:34:52;101060.69;;;1.18;68.62
77153;BME280;66124;51.146;17.072;2023-04-03T00:37:21;101063.46;;;1.17;68.61
77153;BME280;66124;51.146;17.072;2023-04-03T00:39:51;101059.05;;;1.16;68.67
77153;BME280;66124;51.146;17.072;2023-04-03T00:42:20;101059.86;;;1.14;68.81
77153;BME280;66124;51.146;17.072;2023-04-03T00:45:29;101063.45;;;1.12;68.80
77153;BME280;66124;51.146;17.072;2023-04-03T00:48:01;101064.58;;;1.11;69.07
77153;BME280;66124;51.146;17.072;2023-04-03T00:50:32;101061.26;;;1.09;69.23
77153;BME280;66124;51.146;17.072;2023-04-03T00:53:03;101061.01;;;1.07;68.89
77153;BME280;66124;51.146;17.072;2023-04-03T00:55:33;101063.38;;;1.05;69.15
77153;BME280;66124;51.146;17.072;2023-04-03T00:58:03;101066.05;;;1.04;69.10
77153;BME280;66124;51.146;17.072;2023-04-03T01:08:49;101074.48;;;1.00;69.30
77153;BME280;66124;51.146;17.072;2023-04-03T01:11:19;101078.11;;;0.97;69.40
77153;BME280;66124;51.146;17.072;2023-04-03T01:13:49;101081.15;;;0.96;69.59
77153;BME280;66124;51.146;17.072;2023-04-03T01:16:19;101083.07;;;0.96;69.58
77153;BME280;66124;51.146;17.072;2023-04-03T01:18:48;101083.49;;;0.95;69.77
77153;BME280;66124;51.146;17.072;2023-04-03T01:21:58;101084.55;;;0.94;69.85
77153;BME280;66124;51.146;17.072;2023-04-03T01:24:35;101085.42;;;0.94;69.87
77153;BME280;66124;51.146;17.072;2023-04-03T01:27:07;101085.05;;;0.94;69.99
77153;BME280;66124;51.146;17.072;2023-04-03T01:29:38;101082.38;;;0.95;70.26
77153;BME280;66124;51.146;17.072;2023-04-03T01:32:09;101089.80;;;0.96;70.33
77153;BME280;66124;51.146;17.072;2023-04-03T01:34:38;101088.59;;;0.95;70.32
77153;BME280;66124;51.146;17.072;2023-04-03T01:37:08;101087.00;;;0.96;70.20
77153;BME280;66124;51.146;17.072;2023-04-03T01:39:37;101089.87;;;0.97;70.36
77153;BME280;66124;51.146;17.072;2023-04-03T01:42:06;101090.46;;;0.96;70.59
77153;BME280;66124;51.146;17.072;2023-04-03T01:44:36;101091.15;;;0.94;70.57
77153;BME280;66124;51.146;17.072;2023-04-03T01:47:07;101091.88;;;0.90;70.45
77153;BME280;66124;51.146;17.072;2023-04-03T01:49:37;101095.53;;;0.87;70.74
77153;BME280;66124;51.146;17.072;2023-04-03T01:52:06;101096.16;;;0.83;70.71
77153;BME280;66124;51.146;17.072;2023-04-03T01:54:36;101094.81;;;0.80;70.63
77153;BME280;66124;51.146;17.072;2023-04-03T01:57:05;101095.74;;;0.76;70.92
77153;BME280;66124;51.146;17.072;2023-04-03T01:59:34;101095.82;;;0.72;71.14
77153;BME280;66124;51.146;17.072;2023-04-03T02:02:04;101092.41;;;0.68;71.10
77153;BME280;66124;51.146;17.072;2023-04-03T02:04:33;101094.88;;;0.64;71.29
77153;BME280;66124;51.146;17.072;2023-04-03T02:07:03;101093.29;;;0.59;71.50
77153;BME280;66124;51.146;17.072;2023-04-03T02:09:32;101092.65;;;0.56;71.80
77153;BME280;66124;51.146;17.072;2023-04-03T02:12:02;101092.02;;;0.52;71.71
77153;BME280;66124;51.146;17.072;2023-04-03T02:14:31;101088.44;;;0.49;71.94
77153;BME280;66124;51.146;17.072;2023-04-03T02:17:01;101091.81;;;0.44;72.00
77153;BME280;66124;51.146;17.072;2023-04-03T02:19:29;101092.08;;;0.40;72.32
77153;BME280;66124;51.146;17.072;2023-04-03T02:27:01;101094.88;;;0.37;72.51
77153;BME280;66124;51.146;17.072;2023-04-03T02:29:30;101092.11;;;0.29;72.74
77153;BME280;66124;51.146;17.072;2023-04-03T02:32:00;101099.02;;;0.26;72.83
77153;BME280;66124;51.146;17.072;2023-04-03T02:34:29;101101.29;;;0.23;73.07
77153;BME280;66124;51.146;17.072;2023-04-03T02:36:58;101100.83;;;0.19;73.15
77153;BME280;66124;51.146;17.072;2023-04-03T02:39:30;101106.20;;;0.16;73.19
77153;BME280;66124;51.146;17.072;2023-04-03T02:41:59;101106.70;;;0.13;73.25
77153;BME280;66124;51.146;17.072;2023-04-03T02:44:28;101109.27;;;0.08;73.55
77153;BME280;66124;51.146;17.072;2023-04-03T02:46:58;101114.98;;;0.08;73.50
77153;BME280;66124;51.146;17.072;2023-04-03T02:49:27;101116.48;;;0.06;73.76
77153;BME280;66124;51.146;17.072;2023-04-03T02:51:56;101117.92;;;0.05;73.79
77153;BME280;66124;51.146;17.072;2023-04-03T02:54:26;101121.82;;;0.04;74.06
77153;BME280;66124;51.146;17.072;2023-04-03T02:56:56;101126.80;;;0.04;74.08
77153;BME280;66124;51.146;17.072;2023-04-03T02:59:25;101126.18;;;0.03;74.15
77153;BME280;66124;51.146;17.072;2023-04-03T03:01:55;101128.23;;;0.03;74.32
77153;BME280;66124;51.146;17.072;2023-04-03T03:04:24;101126.98;;;0.04;74.29
77153;BME280;66124;51.146;17.072;2023-04-03T03:06:54;101131.30;;;0.04;74.42
77153;BME280;66124;51.146;17.072;2023-04-03T03:09:24;101127.87;;;0.03;74.40
77153;BME280;66124;51.146;17.072;2023-04-03T03:11:53;101126.55;;;0.02;74.57
77153;BME280;66124;51.146;17.072;2023-04-03T03:14:22;101128.35;;;0.01;74.59
77153;BME280;66124;51.146;17.072;2023-04-03T03:16:52;101133.10;;;-0.01;74.55
77153;BME280;66124;51.146;17.072;2023-04-03T03:19:21;101125.89;;;-0.04;74.64
77153;BME280;66124;51.146;17.072;2023-04-03T03:21:50;101131.04;;;-0.06;74.73
77153;BME280;66124;51.146;17.072;2023-04-03T03:24:20;101128.80;;;-0.10;74.73
77153;BME280;66124;51.146;17.072;2023-04-03T03:26:49;101126.45;;;-0.14;74.80
77153;BME280;66124;51.146;17.072;2023-04-03T03:29:19;101127.41;;;-0.18;74.75
77153;BME280;66124;51.146;17.072;2023-04-03T03:31:48;101126.13;;;-0.23;75.05
77153;BME280;66124;51.146;17.072;2023-04-03T03:34:18;101130.36;;;-0.27;75.30
77153;BME280;66124;51.146;17.072;2023-04-03T03:36:45;101136.63;;;-0.31;75.30
77153;BME280;66124;51.146;17.072;2023-04-03T03:39:13;101139.75;;;-0.34;75.60
77153;BME280;66124;51.146;17.072;2023-04-03T03:46:50;101142.48;;;-0.37;75.83
77153;BME280;66124;51.146;17.072;2023-04-03T03:49:19;101142.77;;;-0.42;75.90
77153;BME280;66124;51.146;17.072;2023-04-03T03:51:49;101144.73;;;-0.46;76.02
77153;BME280;66124;51.146;17.072;2023-04-03T03:54:18;101148.16;;;-0.48;76.05
77153;BME280;66124;51.146;17.072;2023-04-03T03:56:48;101151.04;;;-0.50;76.20
77153;BME280;66124;51.146;17.072;2023-04-03T03:59:19;101151.48;;;-0.52;76.34
77153;BME280;66124;51.146;17.072;2023-04-03T04:01:48;101149.20;;;-0.54;76.48
77153;BME280;66124;51.146;17.072;2023-04-03T04:04:18;101155.66;;;-0.56;76.48
77153;BME280;66124;51.146;17.072;2023-04-03T04:06:47;101159.19;;;-0.57;76.53
77153;BME280;66124;51.146;17.072;2023-04-03T04:09:16;101158.80;;;-0.59;76.72
77153;BME280;66124;51.146;17.072;2023-04-03T04:11:45;101158.71;;;-0.61;76.70
77153;BME280;66124;51.146;17.072;2023-04-03T04:14:15;101159.67;;;-0.62;76.77
77153;BME280;66124;51.146;17.072;2023-04-03T04:16:44;101157.91;;;-0.65;76.99
77153;BME280;66124;51.146;17.072;2023-04-03T04:19:14;101156.24;;;-0.66;76.88
77153;BME280;66124;51.146;17.072;2023-04-03T04:21:44;101162.20;;;-0.67;77.17
77153;BME280;66124;51.146;17.072;2023-04-03T04:24:13;101163.29;;;-0.68;77.25
77153;BME280;66124;51.146;17.072;2023-04-03T04:26:43;101169.04;;;-0.69;77.18
77153;BME280;66124;51.146;17.072;2023-04-03T04:29:12;101168.23;;;-0.70;77.22
77153;BME280;66124;51.146;17.072;2023-04-03T04:31:42;101174.50;;;-0.72;77.44
77153;BME280;66124;51.146;17.072;2023-04-03T04:34:11;101175.63;;;-0.73;77.58
77153;BME280;66124;51.146;17.072;2023-04-03T04:36:41;101178.49;;;-0.75;77.70
77153;BME280;66124;51.146;17.072;2023-04-03T04:39:10;101180.48;;;-0.77;77.69
77153;BME280;66124;51.146;17.072;2023-04-03T04:41:39;101191.23;;;-0.78;77.79
77153;BME280;66124;51.146;17.072;2023-04-03T04:44:09;101192.98;;;-0.78;77.63
77153;BME280;66124;51.146;17.072;2023-04-03T04:46:38;101199.42;;;-0.79;77.76
77153;BME280;66124;51.146;17.072;2023-04-03T04:49:08;101196.45;;;-0.78;77.90
77153;BME280;66124;51.146;17.072;2023-04-03T04:51:37;101196.94;;;-0.77;77.89
77153;BME280;66124;51.146;17.072;2023-04-03T04:54:07;101204.48;;;-0.77;78.08
77153;BME280;66124;51.146;17.072;2023-04-03T04:56:36;101202.89;;;-0.76;78.06
77153;BME280;66124;51.146;17.072;2023-04-03T04:59:04;101210.94;;;-0.75;78.07
77153;BME280;66124;51.146;17.072;2023-04-03T05:08:38;101209.26;;;-0.60;77.85
77153;BME280;66124;51.146;17.072;2023-04-03T05:11:07;101209.88;;;-0.58;77.89
77153;BME280;66124;51.146;17.072;2023-04-03T05:13:37;101211.73;;;-0.54;77.98
77153;BME280;66124;51.146;17.072;2023-04-03T05:16:07;101215.64;;;-0.50;78.08
77153;BME280;66124;51.146;17.072;2023-04-03T05:18:37;101221.69;;;-0.48;77.77
77153;BME280;66124;51.146;17.072;2023-04-03T05:21:07;101222.34;;;-0.44;77.85
77153;BME280;66124;51.146;17.072;2023-04-03T05:23:36;101228.55;;;-0.41;77.87
77153;BME280;66124;51.146;17.072;2023-04-03T05:26:06;101227.77;;;-0.36;77.97
77153;BME280;66124;51.146;17.072;2023-04-03T05:28:35;101226.67;;;-0.32;77.68
77153;BME280;66124;51.146;17.072;2023-04-03T05:31:05;101228.21;;;-0.25;77.77
77153;BME280;66124;51.146;17.072;2023-04-03T05:33:34;101231.31;;;-0.10;77.66
77153;BME280;66124;51.146;17.072;2023-04-03T05:36:05;101232.73;;;-0.05;77.51
77153;BME280;66124;51.146;17.072;2023-04-03T05:38:35;101226.83;;;-0.07;77.37
77153;BME280;66124;51.146;17.072;2023-04-03T05:41:04;101240.69;;;0.04;77.19
77153;BME280;66124;51.146;17.072;2023-04-03T05:43:34;101242.40;;;0.10;77.26
77153;BME280;66124;51.146;17.072;2023-04-03T05:46:03;101243.21;;;0.17;77.04
77153;BME280;66124;51.146;17.072;2023-04-03T05:48:32;101246.29;;;0.24;77.12
77153;BME280;66124;51.146;17.072;2023-04-03T05:51:02;101250.50;;;0.28;76.80
77153;BME280;66124;51.146;17.072;2023-04-03T05:53:33;101242.11;;;0.33;76.91
77153;BME280;66124;51.146;17.072;2023-04-03T05:56:04;101247.89;;;0.37;76.66
77153;BME280;66124;51.146;17.072;2023-04-03T05:58:34;101245.41;;;0.41;76.58
77153;BME280;66124;51.146;17.072;2023-04-03T06:01:04;101250.00;;;0.45;76.45
77153;BME280;66124;51.146;17.072;2023-04-03T06:03:33;101249.17;;;0.48;76.21
77153;BME280;66124;51.146;17.072;2023-04-03T06:06:05;101250.00;;;0.51;76.16
77153;BME280;66124;51.146;17.072;2023-04-03T06:08:35;101247.36;;;0.55;76.22
77153;BME280;66124;51.146;17.072;2023-04-03T06:11:05;101249.08;;;0.58;75.85
77153;BME280;66124;51.146;17.072;2023-04-03T06:13:34;101251.83;;;0.61;75.86
77153;BME280;66124;51.146;17.072;2023-04-03T06:16:04;101254.31;;;0.66;75.73
77153;BME280;66124;51.146;17.072;2023-04-03T06:18:32;101248.19;;;0.70;75.61
77153;BME280;66124;51.146;17.072;2023-04-03T06:21:00;101258.54;;;0.76;75.63
77153;BME280;66124;51.146;17.072;2023-04-03T06:28:37;101255.45;;;0.90;75.28
77153;BME280;66124;51.146;17.072;2023-04-03T06:31:07;101255.09;;;0.93;74.95
77153;BME280;66124;51.146;17.072;2023-04-03T06:33:36;101257.41;;;0.98;74.79
77153;BME280;66124;51.146;17.072;2023-04-03T06:36:07;101253.98;;;1.03;74.50
77153;BME280;66124;51.146;17.072;2023-04-03T06:38:36;101261.44;;;1.08;74.61
77153;BME280;66124;51.146;17.072;2023-04-03T06:41:06;101259.36;;;1.14;74.40
77153;BME280;66124;51.146;17.072;2023-04-03T06:43:35;101262.35;;;1.21;74.37
77153;BME280;66124;51.146;17.072;2023-04-03T06:46:05;101263.93;;;1.23;73.94
77153;BME280;66124;51.146;17.072;2023-04-03T06:48:34;101269.48;;;1.26;73.91
77153;BME280;66124;51.146;17.072;2023-04-03T06:51:04;101266.88;;;1.29;73.73
77153;BME280;66124;51.146;17.072;2023-04-03T06:53:33;101268.87;;;1.28;73.62
77153;BME280;66124;51.146;17.072;2023-04-03T06:56:03;101273.02;;;1.33;73.33
77153;BME280;66124;51.146;17.072;2023-04-03T06:58:32;101277.15;;;1.36;73.14
77153;BME280;66124;51.146;17.072;2023-04-03T07:01:02;101274.34;;;1.37;73.11
77153;BME280;66124;51.146;17.072;2023-04-03T07:03:31;101283.28;;;1.47;72.69
77153;BME280;66124;51.146;17.072;2023-04-03T07:06:00;101290.77;;;1.52;72.60
77153;BME280;66124;51.146;17.072;2023-04-03T07:08:30;101296.34;;;1.54;72.07
77153;BME280;66124;51.146;17.072;2023-04-03T07:10:59;101296.09;;;1.55;72.03
77153;BME280;66124;51.146;17.072;2023-04-03T07:13:28;101294.38;;;1.58;71.97
77153;BME280;66124;51.146;17.072;2023-04-03T07:15:58;101286.98;;;1.57;71.92
77153;BME280;66124;51.146;17.072;2023-04-03T07:18:27;101300.54;;;1.69;71.52
77153;BME280;66124;51.146;17.072;2023-04-03T07:20:57;101304.14;;;1.76;71.50
77153;BME280;66124;51.146;17.072;2023-04-03T07:23:26;101305.91;;;1.86;71.42
77153;BME280;66124;51.146;17.072;2023-04-03T07:25:56;101309.55;;;1.96;70.90
77153;BME280;66124;51.146;17.072;2023-04-03T07:28:25;101312.64;;;2.05;70.84
77153;BME280;66124;51.146;17.072;2023-04-03T07:30:59;101309.64;;;2.11;70.55
77153;BME280;66124;51.146;17.072;2023-04-03T07:33:29;101320.09;;;2.14;70.03
77153;BME280;66124;51.146;17.072;2023-04-03T07:35:59;101319.92;;;2.16;70.43
77153;BME280;66124;51.146;17.072;2023-04-03T07:38:27;101319.98;;;2.23;69.66
77153;BME280;66124;51.146;17.072;2023-04-03T07:40:56;101320.43;;;2.26;69.40
77153;BME280;66124;51.146;17.072;2023-04-03T07:48:33;101311.86;;;2.36;69.04
77153;BME280;66124;51.146;17.072;2023-04-03T07:51:03;101312.75;;;2.43;68.54
77153;BME280;66124;51.146;17.072;2023-04-03T07:53:33;101312.34;;;2.49;68.14
77153;BME280;66124;51.146;17.072;2023-04-03T07:56:03;101311.63;;;2.55;68.20
77153;BME280;66124;51.146;17.072;2023-04-03T07:58:32;101312.67;;;2.62;67.95
77153;BME280;66124;51.146;17.072;2023-04-03T08:01:02;101315.01;;;2.66;67.62
77153;BME280;66124;51.146;17.072;2023-04-03T08:03:31;101314.67;;;2.68;67.65
77153;BME280;66124;51.146;17.072;2023-04-03T08:06:04;101317.98;;;2.71;67.43
77153;BME280;66124;51.146;17.072;2023-04-03T08:08:34;101320.81;;;2.78;67.25
77153;BME280;66124;51.146;17.072;2023-04-03T08:11:04;101322.96;;;2.87;67.07
77153;BME280;66124;51.146;17.072;2023-04-03T08:13:34;101315.21;;;2.96;67.37
77153;BME280;66124;51.146;17.072;2023-04-03T08:16:11;101317.05;;;3.07;67.01
77153;BME280;66124;51.146;17.072;2023-04-03T08:18:40;101317.41;;;3.17;66.20
77153;BME280;66124;51.146;17.072;2023-04-03T08:21:11;101315.47;;;3.27;66.13
77153;BME280;66124;51.146;17.072;2023-04-03T08:23:41;101312.70;;;3.40;65.54
77153;BME280;66124;51.146;17.072;2023-04-03T08:26:13;101319.02;;;3.48;65.72
77153;BME280;66124;51.146;17.072;2023-04-03T08:28:43;101311.92;;;3.50;64.69
77153;BME280;66124;51.146;17.072;2023-04-03T08:31:14;101312.73;;;3.49;64.38
77153;BME280;66124;51.146;17.072;2023-04-03T08:33:44;101312.85;;;3.50;63.88
77153;BME280;66124;51.146;17.072;2023-04-03T08:36:22;101314.73;;;3.52;63.25
77153;BME280;66124;51.146;17.072;2023-04-03T08:38:52;101307.97;;;3.60;62.99
77153;BME280;66124;51.146;17.072;2023-04-03T08:41:29;101310.58;;;3.67;62.58
77153;BME280;66124;51.146;17.072;2023-04-03T08:44:04;101309.10;;;3.76;61.98
77153;BME280;66124;51.146;17.072;2023-04-03T08:46:54;101317.84;;;3.77;61.23
77153;BME280;66124;51.146;17.072;2023-04-03T08:49:29;101308.96;;;3.75;60.72
77153;BME280;66124;51.146;17.072;2023-04-03T08:52:02;101312.79;;;3.73;60.89
77153;BME280;66124;51.146;17.072;2023-04-03T08:54:35;101313.56;;;3.69;60.40
77153;BME280;66124;51.146;17.072;2023-04-03T08:57:06;101311.88;;;3.61;60.11
77153;BME280;66124;51.146;17.072;2023-04-03T08:59:35;101312.16;;;3.60;60.54
77153;BME280;66124;51.146;17.072;2023-04-03T09:04:50;101308.55;;;3.69;59.94
77153;BME280;66124;51.146;17.072;2023-04-03T09:07:25;101309.89;;;3.72;59.09
77153;BME280;66124;51.146;17.072;2023-04-03T09:10:00;101305.62;;;3.76;58.28
77153;BME280;66124;51.146;17.072;2023-04-03T09:12:34;101308.52;;;3.81;58.38
77153;BME280;66124;51.146;17.072;2023-04-03T09:15:13;101305.91;;;3.88;57.96
77153;BME280;66124;51.146;17.072;2023-04-03T09:17:52;101305.09;;;3.95;57.92
77153;BME280;66124;51.146;17.072;2023-04-03T09:20:28;101311.92;;;3.99;56.91
77153;BME280;66124;51.146;17.072;2023-04-03T09:23:02;101310.52;;;3.99;56.83
77153;BME280;66124;51.146;17.072;2023-04-03T09:25:38;101305.38;;;3.98;55.54
77153;BME280;66124;51.146;17.072;2023-04-03T09:28:08;101312.53;;;3.93;55.65
77153;BME280;66124;51.146;17.072;2023-04-03T09:30:37;101311.10;;;3.91;55.73
77153;BME280;66124;51.146;17.072;2023-04-03T09:33:07;101308.54;;;3.91;54.97
77153;BME280;66124;51.146;17.072;2023-04-03T09:35:39;101311.45;;;3.89;54.51
77153;BME280;66124;51.146;17.072;2023-04-03T09:38:18;101314.68;;;3.90;54.72
77153;BME280;66124;51.146;17.072;2023-04-03T09:40:50;101311.70;;;3.94;54.75
77153;BME280;66124;51.146;17.072;2023-04-03T09:43:26;101317.98;;;4.04;55.13
77153;BME280;66124;51.146;17.072;2023-04-03T09:45:56;101319.64;;;4.14;55.41
77153;BME280;66124;51.146;17.072;2023-04-03T09:48:51;101322.73;;;4.18;54.31
77153;BME280;66124;51.146;17.072;2023-04-03T09:51:26;101323.73;;;4.16;54.03
77153;BME280;66124;51.146;17.072;2023-04-03T09:53:56;101320.21;;;4.14;54.11
77153;BME280;66124;51.146;17.072;2023-04-03T09:56:28;101322.13;;;4.16;54.16
77153;BME280;66124;51.146;17.072;2023-04-03T09:59:15;101320.45;;;4.20;53.87
77153;BME280;66124;51.146;17.072;2023-04-03T10:01:58;101322.61;;;4.21;53.82
77153;BME280;66124;51.146;17.072;2023-04-03T10:04:39;101318.17;;;4.18;53.08
77153;BME280;66124;51.146;17.072;2023-04-03T10:07:30;101324.65;;;4.17;52.55
77153;BME280;66124;51.146;17.072;2023-04-03T10:10:01;101320.27;;;4.18;52.49
77153;BME280;66124;51.146;17.072;2023-04-03T10:12:31;101316.63;;;4.22;52.36
77153;BME280;66124;51.146;17.072;2023-04-03T10:15:00;101317.14;;;4.32;52.67
77153;BME280;66124;51.146;17.072;2023-04-03T10:17:38;101315.49;;;4.40;52.24
77153;BME280;66124;51.146;17.072;2023-04-03T10:27:58;101313.51;;;4.50;51.41
77153;BME280;66124;51.146;17.072;2023-04-03T10:30:36;101311.81;;;4.52;51.69
77153;BME280;66124;51.146;17.072;2023-04-03T10:33:22;101309.60;;;4.58;51.74
77153;BME280;66124;51.146;17.072;2023-04-03T10:36:06;101312.58;;;4.60;51.82
77153;BME280;66124;51.146;17.072;2023-04-03T10:38:45;101308.47;;;4.59;52.03
77153;BME280;66124;51.146;17.072;2023-04-03T10:41:25;101310.66;;;4.65;51.92
77153;BME280;66124;51.146;17.072;2023-04-03T10:44:08;101311.50;;;4.74;51.44
77153;BME280;66124;51.146;17.072;2023-04-03T10:46:46;101302.81;;;4.81;51.06
77153;BME280;66124;51.146;17.072;2023-04-03T10:49:28;101296.67;;;4.88;51.19
77153;BME280;66124;51.146;17.072;2023-04-03T10:52:05;101302.58;;;4.91;50.47
77153;BME280;66124;51.146;17.072;2023-04-03T10:54:40;101303.30;;;4.90;50.25
77153;BME280;66124;51.146;17.072;2023-04-03T10:57:14;101304.48;;;4.98;50.38
77153;BME280;66124;51.146;17.072;2023-04-03T10:59:46;101299.88;;;5.13;50.22
77153;BME280;66124;51.146;17.072;2023-04-03T11:02:22;101290.02;;;5.35;50.28
77153;BME280;66124;51.146;17.072;2023-04-03T11:04:56;101292.83;;;5.61;50.17
77153;BME280;66124;51.146;17.072;2023-04-03T11:07:32;101294.83;;;5.76;49.51
77153;BME280;66124;51.146;17.072;2023-04-03T11:10:08;101299.55;;;5.91;48.75
77153;BME280;66124;51.146;17.072;2023-04-03T11:12:42;101297.85;;;6.07;48.51
77153;BME280;66124;51.146;17.072;2023-04-03T11:15:16;101294.11;;;6.23;48.91
77153;BME280;66124;51.146;17.072;2023-04-03T11:17:48;101290.01;;;6.24;47.73
77153;BME280;66124;51.146;17.072;2023-04-03T11:20:23;101294.78;;;5.98;47.23
77153;BME280;66124;51.146;17.072;2023-04-03T11:23:00;101298.55;;;5.79;47.70
77153;BME280;66124;51.146;17.072;2023-04-03T11:25:31;101294.45;;;5.61;47.13
77153;BME280;66124;51.146;17.072;2023-04-03T11:28:04;101297.34;;;5.61;46.76
77153;BME280;66124;51.146;17.072;2023-04-03T11:30:41;101294.20;;;5.86;46.67
77153;BME280;66124;51.146;17.072;2023-04-03T11:33:37;101284.77;;;6.15;46.41
77153;BME280;66124;51.146;17.072;2023-04-03T11:36:18;101293.40;;;6.57;46.29
77153;BME280;66124;51.146;17.072;2023-04-03T11:38:47;101289.70;;;6.92;45.61
77153;BME280;66124;51.146;17.072;2023-04-03T11:48:50;101290.30;;;6.48;45.29
77153;BME280;66124;51.146;17.072;2023-04-03T11:51:42;101281.58;;;6.91;45.34
77153;BME280;66124;51.146;17.072;2023-04-03T11:54:42;101278.98;;;7.57;44.76
77153;BME280;66124;51.146;17.072;2023-04-03T12:00:57;101271.83;;;8.79;41.96
77153;BME280;66124;51.146;17.072;2023-04-03T12:07:01;101275.55;;;9.32;40.35
77153;BME280;66124;51.146;17.072;2023-04-03T12:09:57;101271.21;;;9.36;40.95
77153;BME280;66124;51.146;17.072;2023-04-03T12:12:37;101270.39;;;9.71;40.35
77153;BME280;66124;51.146;17.072;2023-04-03T12:18:56;101268.83;;;9.20;39.28
77153;BME280;66124;51.146;17.072;2023-04-03T12:22:07;101271.21;;;9.27;38.68
77153;BME280;66124;51.146;17.072;2023-04-03T12:24:38;101266.25;;;9.67;38.55
77153;BME280;66124;51.146;17.072;2023-04-03T12:27:16;101258.97;;;10.16;37.82
77153;BME280;66124;51.146;17.072;2023-04-03T12:29:54;101255.77;;;10.56;37.93
77153;BME280;66124;51.146;17.072;2023-04-03T12:32:36;101260.05;;;10.45;37.31
77153;BME280;66124;51.146;17.072;2023-04-03T12:35:19;101260.72;;;9.85;37.61
77153;BME280;66124;51.146;17.072;2023-04-03T12:38:33;101265.27;;;9.26;38.43
77153;BME280;66124;51.146;17.072;2023-04-03T12:41:19;101264.10;;;9.38;38.67
77153;BME280;66124;51.146;17.072;2023-04-03T12:44:03;101263.16;;;9.48;38.25
77153;BME280;66124;51.146;17.072;2023-04-03T12:46:39;101261.34;;;9.63;37.93
77153;BME280;66124;51.146;17.072;2023-04-03T12:49:24;101261.21;;;10.14;37.61
77153;BME280;66124;51.146;17.072;2023-04-03T12:51:55;101264.72;;;10.35;37.06
77153;BME280;66124;51.146;17.072;2023-04-03T12:54:29;101264.80;;;10.17;37.12
77153;BME280;66124;51.146;17.072;2023-04-03T12:57:12;101267.80;;;9.79;37.31
77153;BME280;66124;51.146;17.072;2023-04-03T12:59:42;101266.55;;;9.20;37.11
77153;BME280;66124;51.146;17.072;2023-04-03T13:07:28;101258.42;;;9.39;37.59
77153;BME280;66124;51.146;17.072;2023-04-03T13:10:01;101256.45;;;9.99;37.01
77153;BME280;66124;51.146;17.072;2023-04-03T13:12:30;101253.11;;;10.61;36.81
77153;BME280;66124;51.146;17.072;2023-04-03T13:15:02;101253.20;;;11.24;35.82
77153;BME280;66124;51.146;17.072;2023-04-03T13:17:32;101246.61;;;11.40;35.41
77153;BME280;66124;51.146;17.072;2023-04-03T13:20:21;101255.88;;;11.10;35.04
77153;BME280;66124;51.146;17.072;2023-04-03T13:22:53;101256.38;;;11.00;34.73
77153;BME280;66124;51.146;17.072;2023-04-03T13:25:26;101247.33;;;11.09;34.63
77153;BME280;66124;51.146;17.072;2023-04-03T13:27:57;101245.02;;;11.33;34.55
77153;BME280;66124;51.146;17.072;2023-04-03T13:30:30;101246.23;;;11.65;34.41
77153;BME280;66124;51.146;17.072;2023-04-03T13:33:02;101248.52;;;11.57;33.37
77153;BME280;66124;51.146;17.072;2023-04-03T13:35:38;101245.40;;;11.07;33.98
77153;BME280;66124;51.146;17.072;2023-04-03T13:38:23;101244.21;;;11.02;34.14
77153;BME280;66124;51.146;17.072;2023-04-03T13:40:55;101243.48;;;11.27;33.97
77153;BME280;66124;51.146;17.072;2023-04-03T13:43:27;101241.08;;;11.06;34.58
77153;BME280;66124;51.146;17.072;2023-04-03T13:46:00;101256.10;;;10.65;34.33
77153;BME280;66124;51.146;17.072;2023-04-03T13:48:36;101252.52;;;9.97;34.76
77153;BME280;66124;51.146;17.072;2023-04-03T13:51:16;101255.61;;;9.45;35.57
77153;BME280;66124;51.146;17.072;2023-04-03T13:53:49;101255.06;;;9.55;35.66
77153;BME280;66124;51.146;17.072;2023-04-03T13:56:23;101244.94;;;10.10;35.65
77153;BME280;66124;51.146;17.072;2023-04-03T13:59:03;101243.11;;;10.75;34.90
77153;BME280;66124;51.146;17.072;2023-04-03T14:01:41;101244.40;;;10.76;34.27
77153;BME280;66124;51.146;17.072;2023-04-03T14:04:21;101244.91;;;10.42;33.93
77153;BME280;66124;51.146;17.072;2023-04-03T14:06:52;101238.14;;;10.69;34.27
77153;BME280;66124;51.146;17.072;2023-04-03T14:09:23;101231.02;;;11.15;33.42
77153;BME280;66124;51.146;17.072;2023-04-03T14:11:57;101226.72;;;11.28;33.18
77153;BME280;66124;51.146;17.072;2023-04-03T14:14:30;101233.48;;;10.92;33.66
77153;BME280;66124;51.146;17.072;2023-04-03T14:17:01;101243.79;;;10.44;33.98
77153;BME280;66124;51.146;17.072;2023-04-03T14:19:31;101247.48;;;10.07;34.62
77153;BME280;66124;51.146;17.072;2023-04-03T14:27:15;101244.10;;;10.74;33.17
77153;BME280;66124;51.146;17.072;2023-04-03T14:29:44;101243.98;;;11.12;32.86
77153;BME280;66124;51.146;17.072;2023-04-03T14:32:16;101240.73;;;11.58;32.81